sensor_id;sensor_type;location;lat;lon;timestamp;P1;durP1;ratioP1;P2;durP2;ratioP2
20559;SDS011;10438;51.454;6.718;2023-05-07T00:00:16;10.88;;;5.90;;
20559;SDS011;10438;51.454;6.718;2023-05-07T00:02:43;11.48;;;5.82;;
20559;SDS011;10438;51.454;6.718;2023-05-07T00:05:12;10.57;;;6.55;;
20559;SDS011;10438;51.454;6.718;2023-05-07T00:07:37;12.15;;;6.70;;
20559;SDS011;10438;51.454;6.718;2023-05-07T00:10:03;11.35;;;6.07;;
20559;SDS011;10438;51.454;6.718;2023-05-07T00:12:31;9.23;;;6.25;;
20559;SDS011;10438;51.454;6.718;2023-05-07T00:14:58;11.27;;;6.75;;
20559;SDS011;10438;51.454;6.718;2023-05-07T00:17:24;9.20;;;6.28;;
20559;SDS011;10438;51.454;6.718;2023-05-07T00:19:50;9.57;;;6.53;;
20559;SDS011;10438;51.454;6.718;2023-05-07T00:22:15;11.10;;;6.55;;
20559;SDS011;10438;51.454;6.718;2023-05-07T00:24:41;13.50;;;6.05;;
20559;SDS011;10438;51.454;6.718;2023-05-07T00:27:07;14.35;;;7.32;;
20559;SDS011;10438;51.454;6.718;2023-05-07T00:29:32;15.93;;;7.15;;
20559;SDS011;10438;51.454;6.718;2023-05-07T00:31:58;13.27;;;8.13;;
20559;SDS011;10438;51.454;6.718;2023-05-07T00:34:24;14.77;;;6.97;;
20559;SDS011;10438;51.454;6.718;2023-05-07T00:36:49;13.85;;;8.00;;
20559;SDS011;10438;51.454;6.718;2023-05-07T00:39:15;11.77;;;8.15;;
20559;SDS011;10438;51.454;6.718;2023-05-07T00:41:40;13.10;;;7.60;;
20559;SDS011;10438;51.454;6.718;2023-05-07T00:44:06;11.10;;;7.95;;
20559;SDS011;10438;51.454;6.718;2023-05-07T00:46:31;14.07;;;7.90;;
20559;SDS011;10438;51.454;6.718;2023-05-07T00:48:58;12.43;;;7.95;;
20559;SDS011;10438;51.454;6.718;2023-05-07T00:51:25;10.25;;;7.10;;
20559;SDS011;10438;51.454;6.718;2023-05-07T00:53:52;10.75;;;7.72;;
20559;SDS011;10438;51.454;6.718;2023-05-07T00:56:18;11.82;;;6.85;;
20559;SDS011;10438;51.454;6.718;2023-05-07T00:58:46;14.32;;;7.40;;
20559;SDS011;10438;51.454;6.718;2023-05-07T01:01:12;12.32;;;7.47;;
20559;SDS011;10438;51.454;6.718;2023-05-07T01:03:38;15.48;;;7.35;;
20559;SDS011;10438;51.454;6.718;2023-05-07T01:06:03;15.23;;;7.80;;
20559;SDS011;10438;51.454;6.718;2023-05-07T01:08:31;13.18;;;7.15;;
20559;SDS011;10438;51.454;6.718;2023-05-07T01:10:57;13.15;;;8.43;;
20559;SDS011;10438;51.454;6.718;2023-05-07T01:13:23;13.10;;;8.05;;
20559;SDS011;10438;51.454;6.718;2023-05-07T01:15:49;12.38;;;8.85;;
20559;SDS011;10438;51.454;6.718;2023-05-07T01:18:15;13.73;;;8.20;;
20559;SDS011;10438;51.454;6.718;2023-05-07T01:20:41;12.63;;;8.68;;
20559;SDS011;10438;51.454;6.718;2023-05-07T01:23:07;14.65;;;9.65;;
20559;SDS011;10438;51.454;6.718;2023-05-07T01:25:33;12.95;;;9.50;;
20559;SDS011;10438;51.454;6.718;2023-05-07T01:27:59;12.57;;;9.43;;
20559;SDS011;10438;51.454;6.718;2023-05-07T01:30:26;14.80;;;10.10;;
20559;SDS011;10438;51.454;6.718;2023-05-07T01:33:11;15.35;;;10.18;;
20559;SDS011;10438;51.454;6.718;2023-05-07T01:35:41;14.25;;;10.10;;
20559;SDS011;10438;51.454;6.718;2023-05-07T01:38:10;14.82;;;10.98;;
20559;SDS011;10438;51.454;6.718;2023-05-07T01:40:37;18.30;;;10.32;;
20559;SDS011;10438;51.454;6.718;2023-05-07T01:43:03;15.73;;;11.10;;
20559;SDS011;10438;51.454;6.718;2023-05-07T01:45:30;18.58;;;12.45;;
20559;SDS011;10438;51.454;6.718;2023-05-07T01:47:57;17.27;;;12.18;;
20559;SDS011;10438;51.454;6.718;2023-05-07T01:50:23;18.02;;;11.68;;
20559;SDS011;10438;51.454;6.718;2023-05-07T01:52:50;15.65;;;12.35;;
20559;SDS011;10438;51.454;6.718;2023-05-07T01:55:16;19.95;;;12.55;;
20559;SDS011;10438;51.454;6.718;2023-05-07T01:57:41;18.27;;;11.52;;
20559;SDS011;10438;51.454;6.718;2023-05-07T02:00:07;19.15;;;12.45;;
20559;SDS011;10438;51.454;6.718;2023-05-07T02:02:34;16.08;;;11.65;;
20559;SDS011;10438;51.454;6.718;2023-05-07T02:05:00;17.52;;;12.27;;
20559;SDS011;10438;51.454;6.718;2023-05-07T02:07:28;18.77;;;12.65;;
20559;SDS011;10438;51.454;6.718;2023-05-07T02:09:54;17.73;;;12.35;;
20559;SDS011;10438;51.454;6.718;2023-05-07T02:12:20;16.58;;;11.98;;
20559;SDS011;10438;51.454;6.718;2023-05-07T02:14:46;19.17;;;12.80;;
20559;SDS011;10438;51.454;6.718;2023-05-07T02:17:11;17.35;;;12.50;;
20559;SDS011;10438;51.454;6.718;2023-05-07T02:19:37;18.15;;;12.95;;
20559;SDS011;10438;51.454;6.718;2023-05-07T02:22:02;18.90;;;12.07;;
20559;SDS011;10438;51.454;6.718;2023-05-07T02:24:28;19.02;;;11.82;;
20559;SDS011;10438;51.454;6.718;2023-05-07T02:26:53;16.80;;;11.50;;
20559;SDS011;10438;51.454;6.718;2023-05-07T02:29:19;17.52;;;11.55;;
20559;SDS011;10438;51.454;6.718;2023-05-07T02:31:44;15.13;;;11.80;;
20559;SDS011;10438;51.454;6.718;2023-05-07T02:34:10;15.43;;;11.23;;
20559;SDS011;10438;51.454;6.718;2023-05-07T02:36:36;20.05;;;11.88;;
20559;SDS011;10438;51.454;6.718;2023-05-07T02:39:01;18.15;;;11.25;;
20559;SDS011;10438;51.454;6.718;2023-05-07T02:41:28;19.73;;;12.98;;
20559;SDS011;10438;51.454;6.718;2023-05-07T02:43:53;16.17;;;12.02;;
20559;SDS011;10438;51.454;6.718;2023-05-07T02:46:19;17.83;;;12.20;;
20559;SDS011;10438;51.454;6.718;2023-05-07T02:48:44;21.08;;;13.07;;
20559;SDS011;10438;51.454;6.718;2023-05-07T02:51:10;19.50;;;12.38;;
20559;SDS011;10438;51.454;6.718;2023-05-07T02:53:35;21.58;;;13.00;;
20559;SDS011;10438;51.454;6.718;2023-05-07T02:56:01;17.33;;;13.07;;
20559;SDS011;10438;51.454;6.718;2023-05-07T02:58:27;19.05;;;13.43;;
20559;SDS011;10438;51.454;6.718;2023-05-07T03:00:53;23.20;;;14.60;;
20559;SDS011;10438;51.454;6.718;2023-05-07T03:03:19;18.70;;;13.75;;
20559;SDS011;10438;51.454;6.718;2023-05-07T03:05:45;22.98;;;14.65;;
20559;SDS011;10438;51.454;6.718;2023-05-07T03:08:11;20.75;;;15.10;;
20559;SDS011;10438;51.454;6.718;2023-05-07T03:10:36;22.17;;;15.55;;
20559;SDS011;10438;51.454;6.718;2023-05-07T03:13:02;22.65;;;15.73;;
20559;SDS011;10438;51.454;6.718;2023-05-07T03:15:28;20.23;;;14.38;;
20559;SDS011;10438;51.454;6.718;2023-05-07T03:17:53;24.85;;;14.93;;
20559;SDS011;10438;51.454;6.718;2023-05-07T03:20:19;22.15;;;14.35;;
20559;SDS011;10438;51.454;6.718;2023-05-07T03:22:44;17.80;;;14.15;;
20559;SDS011;10438;51.454;6.718;2023-05-07T03:25:10;21.25;;;15.15;;
20559;SDS011;10438;51.454;6.718;2023-05-07T03:27:36;19.83;;;14.32;;
20559;SDS011;10438;51.454;6.718;2023-05-07T03:30:02;20.25;;;14.40;;
20559;SDS011;10438;51.454;6.718;2023-05-07T03:32:27;19.27;;;14.80;;
20559;SDS011;10438;51.454;6.718;2023-05-07T03:34:53;21.33;;;14.98;;
20559;SDS011;10438;51.454;6.718;2023-05-07T03:37:18;22.60;;;16.75;;
20559;SDS011;10438;51.454;6.718;2023-05-07T03:39:44;21.23;;;16.30;;
20559;SDS011;10438;51.454;6.718;2023-05-07T03:42:10;20.33;;;15.63;;
20559;SDS011;10438;51.454;6.718;2023-05-07T03:44:35;21.77;;;16.25;;
20559;SDS011;10438;51.454;6.718;2023-05-07T03:47:01;22.88;;;16.63;;
20559;SDS011;10438;51.454;6.718;2023-05-07T03:49:27;21.38;;;16.60;;
20559;SDS011;10438;51.454;6.718;2023-05-07T03:51:53;23.90;;;17.30;;
20559;SDS011;10438;51.454;6.718;2023-05-07T03:54:18;26.08;;;16.73;;
20559;SDS011;10438;51.454;6.718;2023-05-07T03:56:44;22.00;;;16.13;;
20559;SDS011;10438;51.454;6.718;2023-05-07T03:59:09;22.25;;;16.55;;
20559;SDS011;10438;51.454;6.718;2023-05-07T04:01:35;21.48;;;16.25;;
20559;SDS011;10438;51.454;6.718;2023-05-07T04:04:01;23.47;;;15.97;;
20559;SDS011;10438;51.454;6.718;2023-05-07T04:06:26;22.85;;;16.70;;
20559;SDS011;10438;51.454;6.718;2023-05-07T04:08:52;25.85;;;16.73;;
20559;SDS011;10438;51.454;6.718;2023-05-07T04:11:18;22.58;;;16.42;;
20559;SDS011;10438;51.454;6.718;2023-05-07T04:13:43;21.65;;;15.80;;
20559;SDS011;10438;51.454;6.718;2023-05-07T04:16:09;26.08;;;16.65;;
20559;SDS011;10438;51.454;6.718;2023-05-07T04:18:35;19.80;;;16.33;;
20559;SDS011;10438;51.454;6.718;2023-05-07T04:21:00;25.42;;;18.73;;
20559;SDS011;10438;51.454;6.718;2023-05-07T04:23:26;27.55;;;19.33;;
20559;SDS011;10438;51.454;6.718;2023-05-07T04:25:51;26.08;;;19.55;;
20559;SDS011;10438;51.454;6.718;2023-05-07T04:28:17;27.70;;;20.45;;
20559;SDS011;10438;51.454;6.718;2023-05-07T04:30:43;27.52;;;20.80;;
20559;SDS011;10438;51.454;6.718;2023-05-07T04:33:08;31.17;;;21.97;;
20559;SDS011;10438;51.454;6.718;2023-05-07T04:35:34;29.67;;;21.17;;
20559;SDS011;10438;51.454;6.718;2023-05-07T04:38:00;24.10;;;19.67;;
20559;SDS011;10438;51.454;6.718;2023-05-07T04:40:27;25.10;;;19.77;;
20559;SDS011;10438;51.454;6.718;2023-05-07T04:42:52;29.77;;;20.92;;
20559;SDS011;10438;51.454;6.718;2023-05-07T04:45:18;23.83;;;19.05;;
20559;SDS011;10438;51.454;6.718;2023-05-07T04:47:44;27.80;;;21.60;;
20559;SDS011;10438;51.454;6.718;2023-05-07T04:50:09;30.02;;;21.13;;
20559;SDS011;10438;51.454;6.718;2023-05-07T04:52:35;28.65;;;21.75;;
20559;SDS011;10438;51.454;6.718;2023-05-07T04:55:01;25.88;;;21.08;;
20559;SDS011;10438;51.454;6.718;2023-05-07T04:57:26;26.55;;;20.45;;
20559;SDS011;10438;51.454;6.718;2023-05-07T04:59:52;28.40;;;21.65;;
20559;SDS011;10438;51.454;6.718;2023-05-07T05:02:18;31.37;;;21.70;;
20559;SDS011;10438;51.454;6.718;2023-05-07T05:04:44;37.60;;;22.65;;
20559;SDS011;10438;51.454;6.718;2023-05-07T05:07:10;26.17;;;21.85;;
20559;SDS011;10438;51.454;6.718;2023-05-07T05:09:35;28.25;;;22.35;;
20559;SDS011;10438;51.454;6.718;2023-05-07T05:12:01;32.17;;;21.83;;
20559;SDS011;10438;51.454;6.718;2023-05-07T05:14:26;30.52;;;22.17;;
20559;SDS011;10438;51.454;6.718;2023-05-07T05:16:52;27.55;;;21.90;;
20559;SDS011;10438;51.454;6.718;2023-05-07T05:19:17;29.63;;;21.80;;
20559;SDS011;10438;51.454;6.718;2023-05-07T05:21:43;29.85;;;22.83;;
20559;SDS011;10438;51.454;6.718;2023-05-07T05:24:08;27.42;;;21.95;;
20559;SDS011;10438;51.454;6.718;2023-05-07T05:26:34;29.98;;;22.65;;
20559;SDS011;10438;51.454;6.718;2023-05-07T05:28:59;29.05;;;22.52;;
20559;SDS011;10438;51.454;6.718;2023-05-07T05:31:25;27.42;;;22.58;;
20559;SDS011;10438;51.454;6.718;2023-05-07T05:33:50;30.45;;;23.30;;
20559;SDS011;10438;51.454;6.718;2023-05-07T05:36:16;29.27;;;22.73;;
20559;SDS011;10438;51.454;6.718;2023-05-07T05:38:42;33.58;;;23.05;;
20559;SDS011;10438;51.454;6.718;2023-05-07T05:41:08;28.88;;;22.17;;
20559;SDS011;10438;51.454;6.718;2023-05-07T05:43:34;33.33;;;22.95;;
20559;SDS011;10438;51.454;6.718;2023-05-07T05:46:00;28.33;;;22.77;;
20559;SDS011;10438;51.454;6.718;2023-05-07T05:48:25;30.08;;;22.85;;
20559;SDS011;10438;51.454;6.718;2023-05-07T05:50:51;30.88;;;22.33;;
20559;SDS011;10438;51.454;6.718;2023-05-07T05:53:16;28.83;;;21.02;;
20559;SDS011;10438;51.454;6.718;2023-05-07T05:55:42;27.23;;;20.83;;
20559;SDS011;10438;51.454;6.718;2023-05-07T05:58:08;30.08;;;20.85;;
20559;SDS011;10438;51.454;6.718;2023-05-07T06:00:34;26.92;;;21.27;;
20559;SDS011;10438;51.454;6.718;2023-05-07T06:03:00;30.88;;;20.17;;
20559;SDS011;10438;51.454;6.718;2023-05-07T06:05:25;25.42;;;19.45;;
20559;SDS011;10438;51.454;6.718;2023-05-07T06:07:51;21.50;;;17.52;;
20559;SDS011;10438;51.454;6.718;2023-05-07T06:10:16;22.38;;;16.98;;
20559;SDS011;10438;51.454;6.718;2023-05-07T06:12:42;20.02;;;16.58;;
20559;SDS011;10438;51.454;6.718;2023-05-07T06:15:07;21.40;;;16.25;;
20559;SDS011;10438;51.454;6.718;2023-05-07T06:17:33;17.33;;;14.00;;
20559;SDS011;10438;51.454;6.718;2023-05-07T06:19:59;17.15;;;14.00;;
20559;SDS011;10438;51.454;6.718;2023-05-07T06:22:24;19.05;;;12.45;;
20559;SDS011;10438;51.454;6.718;2023-05-07T06:24:50;14.02;;;11.23;;
20559;SDS011;10438;51.454;6.718;2023-05-07T06:27:16;17.00;;;10.75;;
20559;SDS011;10438;51.454;6.718;2023-05-07T06:29:41;15.88;;;10.60;;
20559;SDS011;10438;51.454;6.718;2023-05-07T06:32:10;13.73;;;9.95;;
20559;SDS011;10438;51.454;6.718;2023-05-07T06:34:38;14.95;;;9.48;;
20559;SDS011;10438;51.454;6.718;2023-05-07T06:37:04;17.92;;;9.50;;
20559;SDS011;10438;51.454;6.718;2023-05-07T06:39:31;11.68;;;8.88;;
20559;SDS011;10438;51.454;6.718;2023-05-07T06:41:57;14.90;;;9.05;;
20559;SDS011;10438;51.454;6.718;2023-05-07T06:44:22;12.43;;;8.80;;
20559;SDS011;10438;51.454;6.718;2023-05-07T06:46:48;11.10;;;7.90;;
20559;SDS011;10438;51.454;6.718;2023-05-07T06:49:14;12.18;;;7.78;;
20559;SDS011;10438;51.454;6.718;2023-05-07T06:51:40;13.15;;;7.82;;
20559;SDS011;10438;51.454;6.718;2023-05-07T06:54:05;13.77;;;7.82;;
20559;SDS011;10438;51.454;6.718;2023-05-07T06:56:31;12.35;;;7.35;;
20559;SDS011;10438;51.454;6.718;2023-05-07T06:58:57;12.30;;;7.57;;
20559;SDS011;10438;51.454;6.718;2023-05-07T07:01:24;9.65;;;7.07;;
20559;SDS011;10438;51.454;6.718;2023-05-07T07:03:50;11.45;;;6.53;;
20559;SDS011;10438;51.454;6.718;2023-05-07T07:06:16;11.50;;;6.72;;
20559;SDS011;10438;51.454;6.718;2023-05-07T07:08:41;7.90;;;6.03;;
20559;SDS011;10438;51.454;6.718;2023-05-07T07:11:07;10.68;;;6.80;;
20559;SDS011;10438;51.454;6.718;2023-05-07T07:13:33;9.90;;;6.40;;
20559;SDS011;10438;51.454;6.718;2023-05-07T07:15:59;12.77;;;6.05;;
20559;SDS011;10438;51.454;6.718;2023-05-07T07:18:25;10.63;;;5.80;;
20559;SDS011;10438;51.454;6.718;2023-05-07T07:20:51;11.05;;;5.50;;
20559;SDS011;10438;51.454;6.718;2023-05-07T07:23:16;7.85;;;5.20;;
20559;SDS011;10438;51.454;6.718;2023-05-07T07:25:42;9.52;;;5.88;;
20559;SDS011;10438;51.454;6.718;2023-05-07T07:28:07;12.23;;;5.50;;
20559;SDS011;10438;51.454;6.718;2023-05-07T07:30:33;7.05;;;4.90;;
20559;SDS011;10438;51.454;6.718;2023-05-07T07:32:58;7.60;;;4.72;;
20559;SDS011;10438;51.454;6.718;2023-05-07T07:35:31;8.50;;;4.97;;
20559;SDS011;10438;51.454;6.718;2023-05-07T07:37:57;7.75;;;4.40;;
20559;SDS011;10438;51.454;6.718;2023-05-07T07:40:23;8.65;;;5.30;;
20559;SDS011;10438;51.454;6.718;2023-05-07T07:42:48;10.02;;;4.72;;
20559;SDS011;10438;51.454;6.718;2023-05-07T07:45:14;7.60;;;4.55;;
20559;SDS011;10438;51.454;6.718;2023-05-07T07:47:40;13.02;;;5.95;;
20559;SDS011;10438;51.454;6.718;2023-05-07T07:50:06;12.35;;;5.30;;
20559;SDS011;10438;51.454;6.718;2023-05-07T07:52:32;7.82;;;4.40;;
20559;SDS011;10438;51.454;6.718;2023-05-07T07:54:58;8.40;;;5.22;;
20559;SDS011;10438;51.454;6.718;2023-05-07T07:57:24;7.38;;;4.32;;
20559;SDS011;10438;51.454;6.718;2023-05-07T07:59:49;8.65;;;4.60;;
20559;SDS011;10438;51.454;6.718;2023-05-07T08:02:15;9.27;;;4.20;;
20559;SDS011;10438;51.454;6.718;2023-05-07T08:04:41;9.38;;;4.50;;
20559;SDS011;10438;51.454;6.718;2023-05-07T08:07:08;9.32;;;3.92;;
20559;SDS011;10438;51.454;6.718;2023-05-07T08:09:37;7.25;;;3.88;;
20559;SDS011;10438;51.454;6.718;2023-05-07T08:12:04;6.07;;;3.45;;
20559;SDS011;10438;51.454;6.718;2023-05-07T08:14:33;9.10;;;4.03;;
20559;SDS011;10438;51.454;6.718;2023-05-07T08:16:59;8.52;;;3.97;;
20559;SDS011;10438;51.454;6.718;2023-05-07T08:19:24;9.73;;;3.47;;
20559;SDS011;10438;51.454;6.718;2023-05-07T08:21:50;5.22;;;3.15;;
20559;SDS011;10438;51.454;6.718;2023-05-07T08:24:15;8.27;;;3.60;;
20559;SDS011;10438;51.454;6.718;2023-05-07T08:26:42;7.55;;;3.50;;
20559;SDS011;10438;51.454;6.718;2023-05-07T08:29:08;6.15;;;2.90;;
20559;SDS011;10438;51.454;6.718;2023-05-07T08:31:34;10.30;;;3.72;;
20559;SDS011;10438;51.454;6.718;2023-05-07T08:34:00;6.13;;;3.38;;
20559;SDS011;10438;51.454;6.718;2023-05-07T08:36:25;8.63;;;3.90;;
20559;SDS011;10438;51.454;6.718;2023-05-07T08:38:51;5.95;;;3.13;;
20559;SDS011;10438;51.454;6.718;2023-05-07T08:41:18;5.95;;;3.63;;
20559;SDS011;10438;51.454;6.718;2023-05-07T08:43:45;5.93;;;3.47;;
20559;SDS011;10438;51.454;6.718;2023-05-07T08:46:15;8.00;;;3.58;;
20559;SDS011;10438;51.454;6.718;2023-05-07T08:48:43;5.55;;;2.75;;
20559;SDS011;10438;51.454;6.718;2023-05-07T08:51:12;6.97;;;3.40;;
20559;SDS011;10438;51.454;6.718;2023-05-07T08:53:39;8.07;;;2.92;;
20559;SDS011;10438;51.454;6.718;2023-05-07T08:56:06;5.63;;;2.50;;
20559;SDS011;10438;51.454;6.718;2023-05-07T08:58:33;4.60;;;2.50;;
20559;SDS011;10438;51.454;6.718;2023-05-07T09:01:00;5.00;;;2.38;;
20559;SDS011;10438;51.454;6.718;2023-05-07T09:03:28;6.32;;;2.63;;
20559;SDS011;10438;51.454;6.718;2023-05-07T09:05:55;5.97;;;2.55;;
20559;SDS011;10438;51.454;6.718;2023-05-07T09:08:23;9.07;;;2.63;;
20559;SDS011;10438;51.454;6.718;2023-05-07T09:10:51;4.22;;;2.55;;
20559;SDS011;10438;51.454;6.718;2023-05-07T09:13:17;7.07;;;2.50;;
20559;SDS011;10438;51.454;6.718;2023-05-07T09:15:43;7.57;;;2.20;;
20559;SDS011;10438;51.454;6.718;2023-05-07T09:18:08;5.60;;;2.20;;
20559;SDS011;10438;51.454;6.718;2023-05-07T09:20:36;5.47;;;2.20;;
20559;SDS011;10438;51.454;6.718;2023-05-07T09:23:01;6.32;;;2.55;;
20559;SDS011;10438;51.454;6.718;2023-05-07T09:25:31;4.68;;;2.33;;
20559;SDS011;10438;51.454;6.718;2023-05-07T09:27:58;4.10;;;2.25;;
20559;SDS011;10438;51.454;6.718;2023-05-07T09:30:30;3.30;;;1.58;;
20559;SDS011;10438;51.454;6.718;2023-05-07T09:33:00;5.05;;;2.00;;
20559;SDS011;10438;51.454;6.718;2023-05-07T09:35:27;3.60;;;1.92;;
20559;SDS011;10438;51.454;6.718;2023-05-07T09:37:53;4.82;;;1.90;;
20559;SDS011;10438;51.454;6.718;2023-05-07T09:40:21;6.22;;;1.80;;
20559;SDS011;10438;51.454;6.718;2023-05-07T09:42:47;4.88;;;2.15;;
20559;SDS011;10438;51.454;6.718;2023-05-07T09:45:14;4.25;;;1.77;;
20559;SDS011;10438;51.454;6.718;2023-05-07T09:47:40;7.00;;;2.10;;
20559;SDS011;10438;51.454;6.718;2023-05-07T09:50:10;3.65;;;1.60;;
20559;SDS011;10438;51.454;6.718;2023-05-07T09:52:38;5.47;;;1.77;;
20559;SDS011;10438;51.454;6.718;2023-05-07T09:55:05;4.00;;;1.40;;
20559;SDS011;10438;51.454;6.718;2023-05-07T09:57:32;5.05;;;2.30;;
20559;SDS011;10438;51.454;6.718;2023-05-07T09:59:58;3.60;;;1.50;;
20559;SDS011;10438;51.454;6.718;2023-05-07T10:02:27;4.97;;;1.65;;
20559;SDS011;10438;51.454;6.718;2023-05-07T10:04:55;6.47;;;1.83;;
20559;SDS011;10438;51.454;6.718;2023-05-07T10:07:23;9.25;;;1.80;;
20559;SDS011;10438;51.454;6.718;2023-05-07T10:09:50;4.90;;;2.13;;
20559;SDS011;10438;51.454;6.718;2023-05-07T10:12:16;7.78;;;1.60;;
20559;SDS011;10438;51.454;6.718;2023-05-07T10:14:43;3.78;;;1.65;;
20559;SDS011;10438;51.454;6.718;2023-05-07T10:17:11;4.10;;;1.55;;
20559;SDS011;10438;51.454;6.718;2023-05-07T10:19:36;3.28;;;1.40;;
20559;SDS011;10438;51.454;6.718;2023-05-07T10:22:04;5.18;;;1.90;;
20559;SDS011;10438;51.454;6.718;2023-05-07T10:24:34;4.85;;;1.75;;
20559;SDS011;10438;51.454;6.718;2023-05-07T10:27:02;4.35;;;1.55;;
20559;SDS011;10438;51.454;6.718;2023-05-07T10:29:37;6.50;;;1.90;;
20559;SDS011;10438;51.454;6.718;2023-05-07T10:35:02;5.13;;;1.90;;
20559;SDS011;10438;51.454;6.718;2023-05-07T10:37:31;5.63;;;1.80;;
20559;SDS011;10438;51.454;6.718;2023-05-07T10:39:57;3.42;;;1.80;;
20559;SDS011;10438;51.454;6.718;2023-05-07T10:42:23;10.27;;;1.95;;
20559;SDS011;10438;51.454;6.718;2023-05-07T10:44:49;4.13;;;1.50;;
20559;SDS011;10438;51.454;6.718;2023-05-07T10:47:15;4.32;;;1.60;;
20559;SDS011;10438;51.454;6.718;2023-05-07T10:52:12;4.60;;;1.60;;
20559;SDS011;10438;51.454;6.718;2023-05-07T10:57:42;5.30;;;2.17;;
20559;SDS011;10438;51.454;6.718;2023-05-07T11:05:26;4.43;;;2.20;;
20559;SDS011;10438;51.454;6.718;2023-05-07T11:08:00;7.72;;;2.40;;
20559;SDS011;10438;51.454;6.718;2023-05-07T11:13:42;5.15;;;1.85;;
20559;SDS011;10438;51.454;6.718;2023-05-07T11:16:18;4.05;;;1.70;;
20559;SDS011;10438;51.454;6.718;2023-05-07T11:18:48;4.45;;;1.80;;
20559;SDS011;10438;51.454;6.718;2023-05-07T11:21:32;3.95;;;1.52;;
20559;SDS011;10438;51.454;6.718;2023-05-07T11:23:59;5.32;;;1.90;;
20559;SDS011;10438;51.454;6.718;2023-05-07T11:26:24;4.90;;;1.70;;
20559;SDS011;10438;51.454;6.718;2023-05-07T11:28:51;4.35;;;1.75;;
20559;SDS011;10438;51.454;6.718;2023-05-07T11:31:36;5.93;;;1.80;;
20559;SDS011;10438;51.454;6.718;2023-05-07T11:34:02;3.13;;;1.30;;
20559;SDS011;10438;51.454;6.718;2023-05-07T11:36:30;3.45;;;1.60;;
20559;SDS011;10438;51.454;6.718;2023-05-07T11:38:57;5.55;;;1.58;;
20559;SDS011;10438;51.454;6.718;2023-05-07T11:41:23;4.75;;;2.05;;
20559;SDS011;10438;51.454;6.718;2023-05-07T11:43:59;5.22;;;1.80;;
20559;SDS011;10438;51.454;6.718;2023-05-07T11:46:27;3.97;;;1.92;;
20559;SDS011;10438;51.454;6.718;2023-05-07T11:48:53;5.43;;;1.70;;
20559;SDS011;10438;51.454;6.718;2023-05-07T11:51:20;4.43;;;2.05;;
20559;SDS011;10438;51.454;6.718;2023-05-07T11:53:48;5.07;;;2.05;;
20559;SDS011;10438;51.454;6.718;2023-05-07T11:56:15;4.28;;;2.30;;
20559;SDS011;10438;51.454;6.718;2023-05-07T11:58:42;4.68;;;2.13;;
20559;SDS011;10438;51.454;6.718;2023-05-07T12:01:10;4.75;;;1.95;;
20559;SDS011;10438;51.454;6.718;2023-05-07T12:03:37;4.10;;;2.20;;
20559;SDS011;10438;51.454;6.718;2023-05-07T12:06:07;6.80;;;1.88;;
20559;SDS011;10438;51.454;6.718;2023-05-07T12:08:35;4.60;;;1.85;;
20559;SDS011;10438;51.454;6.718;2023-05-07T12:11:02;4.80;;;2.10;;
20559;SDS011;10438;51.454;6.718;2023-05-07T12:13:31;5.32;;;2.20;;
20559;SDS011;10438;51.454;6.718;2023-05-07T12:15:57;5.82;;;2.22;;
20559;SDS011;10438;51.454;6.718;2023-05-07T12:18:23;4.93;;;1.92;;
20559;SDS011;10438;51.454;6.718;2023-05-07T12:20:49;6.47;;;2.40;;
20559;SDS011;10438;51.454;6.718;2023-05-07T12:23:15;5.72;;;2.47;;
20559;SDS011;10438;51.454;6.718;2023-05-07T12:25:42;5.72;;;2.40;;
20559;SDS011;10438;51.454;6.718;2023-05-07T12:28:13;4.90;;;2.00;;
20559;SDS011;10438;51.454;6.718;2023-05-07T12:30:40;5.55;;;2.38;;
20559;SDS011;10438;51.454;6.718;2023-05-07T12:33:07;6.18;;;2.13;;
20559;SDS011;10438;51.454;6.718;2023-05-07T12:35:37;4.50;;;2.03;;
20559;SDS011;10438;51.454;6.718;2023-05-07T12:38:11;4.63;;;1.60;;
20559;SDS011;10438;51.454;6.718;2023-05-07T12:40:38;9.52;;;1.90;;
20559;SDS011;10438;51.454;6.718;2023-05-07T12:43:25;4.55;;;1.83;;
20559;SDS011;10438;51.454;6.718;2023-05-07T12:45:53;8.32;;;2.58;;
20559;SDS011;10438;51.454;6.718;2023-05-07T12:48:20;5.80;;;1.85;;
20559;SDS011;10438;51.454;6.718;2023-05-07T12:50:49;4.53;;;1.90;;
20559;SDS011;10438;51.454;6.718;2023-05-07T12:53:16;3.75;;;1.90;;
20559;SDS011;10438;51.454;6.718;2023-05-07T12:55:42;3.75;;;1.95;;
20559;SDS011;10438;51.454;6.718;2023-05-07T12:58:14;6.07;;;2.00;;
20559;SDS011;10438;51.454;6.718;2023-05-07T13:00:44;4.03;;;1.70;;
20559;SDS011;10438;51.454;6.718;2023-05-07T13:03:10;4.30;;;1.92;;
20559;SDS011;10438;51.454;6.718;2023-05-07T13:05:36;4.88;;;2.03;;
20559;SDS011;10438;51.454;6.718;2023-05-07T13:08:02;4.82;;;2.00;;
20559;SDS011;10438;51.454;6.718;2023-05-07T13:10:27;4.45;;;1.92;;
20559;SDS011;10438;51.454;6.718;2023-05-07T13:12:53;6.38;;;2.10;;
20559;SDS011;10438;51.454;6.718;2023-05-07T13:15:19;5.53;;;2.17;;
20559;SDS011;10438;51.454;6.718;2023-05-07T13:17:45;4.30;;;1.92;;
20559;SDS011;10438;51.454;6.718;2023-05-07T13:20:11;6.47;;;2.13;;
20559;SDS011;10438;51.454;6.718;2023-05-07T13:22:40;5.88;;;2.20;;
20559;SDS011;10438;51.454;6.718;2023-05-07T13:25:06;13.10;;;2.50;;
20559;SDS011;10438;51.454;6.718;2023-05-07T13:27:32;5.63;;;2.35;;
20559;SDS011;10438;51.454;6.718;2023-05-07T13:30:00;11.90;;;2.97;;
20559;SDS011;10438;51.454;6.718;2023-05-07T13:32:26;8.13;;;2.50;;
20559;SDS011;10438;51.454;6.718;2023-05-07T13:34:51;7.78;;;2.30;;
20559;SDS011;10438;51.454;6.718;2023-05-07T13:37:17;5.85;;;2.53;;
20559;SDS011;10438;51.454;6.718;2023-05-07T13:39:42;6.30;;;2.20;;
20559;SDS011;10438;51.454;6.718;2023-05-07T13:42:08;6.53;;;2.25;;
20559;SDS011;10438;51.454;6.718;2023-05-07T13:44:33;4.72;;;2.25;;
20559;SDS011;10438;51.454;6.718;2023-05-07T13:46:59;6.18;;;2.80;;
20559;SDS011;10438;51.454;6.718;2023-05-07T13:49:25;11.18;;;3.30;;
20559;SDS011;10438;51.454;6.718;2023-05-07T13:51:51;7.82;;;3.15;;
20559;SDS011;10438;51.454;6.718;2023-05-07T13:54:16;7.45;;;3.17;;
20559;SDS011;10438;51.454;6.718;2023-05-07T13:56:42;8.35;;;3.60;;
20559;SDS011;10438;51.454;6.718;2023-05-07T13:59:07;5.45;;;3.40;;
20559;SDS011;10438;51.454;6.718;2023-05-07T14:01:33;7.70;;;3.70;;
20559;SDS011;10438;51.454;6.718;2023-05-07T14:03:58;9.07;;;3.50;;
20559;SDS011;10438;51.454;6.718;2023-05-07T14:06:24;5.05;;;2.97;;
20559;SDS011;10438;51.454;6.718;2023-05-07T14:08:50;10.07;;;3.65;;
20559;SDS011;10438;51.454;6.718;2023-05-07T14:11:15;7.07;;;3.50;;
20559;SDS011;10438;51.454;6.718;2023-05-07T14:13:41;7.22;;;3.42;;
20559;SDS011;10438;51.454;6.718;2023-05-07T14:16:06;6.57;;;3.53;;
20559;SDS011;10438;51.454;6.718;2023-05-07T14:18:32;8.00;;;2.83;;
20559;SDS011;10438;51.454;6.718;2023-05-07T14:20:59;6.72;;;3.40;;
20559;SDS011;10438;51.454;6.718;2023-05-07T14:23:24;6.43;;;3.22;;
20559;SDS011;10438;51.454;6.718;2023-05-07T14:25:51;5.75;;;3.03;;
20559;SDS011;10438;51.454;6.718;2023-05-07T14:28:18;7.13;;;3.00;;
20559;SDS011;10438;51.454;6.718;2023-05-07T14:30:43;7.97;;;3.67;;
20559;SDS011;10438;51.454;6.718;2023-05-07T14:33:09;4.82;;;2.97;;
20559;SDS011;10438;51.454;6.718;2023-05-07T14:35:34;6.38;;;3.78;;
20559;SDS011;10438;51.454;6.718;2023-05-07T14:38:00;6.20;;;3.17;;
20559;SDS011;10438;51.454;6.718;2023-05-07T14:40:25;6.38;;;4.10;;
20559;SDS011;10438;51.454;6.718;2023-05-07T14:42:51;9.35;;;4.55;;
20559;SDS011;10438;51.454;6.718;2023-05-07T14:45:16;13.23;;;6.28;;
20559;SDS011;10438;51.454;6.718;2023-05-07T14:47:42;14.20;;;7.35;;